sensor_id;sensor_type;location;lat;lon;timestamp;P1;durP1;ratioP1;P2;durP2;ratioP2
16403;SDS011;8311;50.158;8.642;2022-07-29T00:01:13;2.28;;;1.25;;
16403;SDS011;8311;50.158;8.642;2022-07-29T00:04:10;2.53;;;1.40;;
16403;SDS011;8311;50.158;8.642;2022-07-29T00:07:06;1.90;;;1.10;;
16403;SDS011;8311;50.158;8.642;2022-07-29T00:10:01;2.00;;;1.42;;
16403;SDS011;8311;50.158;8.642;2022-07-29T00:12:56;2.58;;;1.40;;
16403;SDS011;8311;50.158;8.642;2022-07-29T00:15:52;1.80;;;1.15;;
16403;SDS011;8311;50.158;8.642;2022-07-29T00:18:45;2.63;;;1.23;;
16403;SDS011;8311;50.158;8.642;2022-07-29T00:21:38;4.00;;;1.20;;
16403;SDS011;8311;50.158;8.642;2022-07-29T00:24:32;2.65;;;1.50;;
16403;SDS011;8311;50.158;8.642;2022-07-29T00:27:26;1.83;;;1.27;;
16403;SDS011;8311;50.158;8.642;2022-07-29T00:30:19;1.73;;;1.23;;
16403;SDS011;8311;50.158;8.642;2022-07-29T00:33:12;1.15;;;1.00;;
16403;SDS011;8311;50.158;8.642;2022-07-29T00:36:06;1.90;;;1.20;;
16403;SDS011;8311;50.158;8.642;2022-07-29T00:38:59;3.78;;;1.65;;
16403;SDS011;8311;50.158;8.642;2022-07-29T00:41:54;2.70;;;1.20;;
16403;SDS011;8311;50.158;8.642;2022-07-29T00:44:47;3.03;;;1.30;;
16403;SDS011;8311;50.158;8.642;2022-07-29T00:47:40;3.45;;;1.65;;
16403;SDS011;8311;50.158;8.642;2022-07-29T00:50:34;2.25;;;1.38;;
16403;SDS011;8311;50.158;8.642;2022-07-29T00:53:29;1.70;;;1.23;;
16403;SDS011;8311;50.158;8.642;2022-07-29T00:56:22;2.42;;;1.35;;
16403;SDS011;8311;50.158;8.642;2022-07-29T00:59:16;2.75;;;1.40;;
16403;SDS011;8311;50.158;8.642;2022-07-29T01:02:09;3.20;;;1.65;;
16403;SDS011;8311;50.158;8.642;2022-07-29T01:05:02;2.60;;;1.70;;
16403;SDS011;8311;50.158;8.642;2022-07-29T01:07:56;3.47;;;1.27;;
16403;SDS011;8311;50.158;8.642;2022-07-29T01:10:50;1.85;;;1.30;;
16403;SDS011;8311;50.158;8.642;2022-07-29T01:13:45;1.85;;;1.42;;
16403;SDS011;8311;50.158;8.642;2022-07-29T01:16:42;2.58;;;1.40;;
16403;SDS011;8311;50.158;8.642;2022-07-29T01:19:45;1.83;;;1.38;;
16403;SDS011;8311;50.158;8.642;2022-07-29T01:26:07;1.95;;;1.30;;
16403;SDS011;8311;50.158;8.642;2022-07-29T01:29:23;1.50;;;1.10;;
16403;SDS011;8311;50.158;8.642;2022-07-29T01:32:30;2.70;;;1.60;;
16403;SDS011;8311;50.158;8.642;2022-07-29T01:35:27;3.67;;;1.40;;
16403;SDS011;8311;50.158;8.642;2022-07-29T01:38:24;3.55;;;1.40;;
16403;SDS011;8311;50.158;8.642;2022-07-29T01:41:20;1.92;;;1.20;;
16403;SDS011;8311;50.158;8.642;2022-07-29T01:44:16;3.10;;;1.75;;
16403;SDS011;8311;50.158;8.642;2022-07-29T01:47:17;3.58;;;1.15;;
16403;SDS011;8311;50.158;8.642;2022-07-29T01:50:14;2.50;;;1.40;;
16403;SDS011;8311;50.158;8.642;2022-07-29T01:53:10;2.20;;;1.50;;
16403;SDS011;8311;50.158;8.642;2022-07-29T01:56:06;2.08;;;1.30;;
16403;SDS011;8311;50.158;8.642;2022-07-29T01:59:02;2.75;;;1.50;;
16403;SDS011;8311;50.158;8.642;2022-07-29T02:01:57;1.98;;;1.15;;
16403;SDS011;8311;50.158;8.642;2022-07-29T02:04:53;1.45;;;1.10;;
16403;SDS011;8311;50.158;8.642;2022-07-29T02:07:48;2.47;;;1.35;;
16403;SDS011;8311;50.158;8.642;2022-07-29T02:10:43;2.65;;;1.35;;
16403;SDS011;8311;50.158;8.642;2022-07-29T02:13:38;2.08;;;1.25;;
16403;SDS011;8311;50.158;8.642;2022-07-29T02:16:32;2.70;;;1.40;;
16403;SDS011;8311;50.158;8.642;2022-07-29T02:19:27;2.75;;;1.58;;
16403;SDS011;8311;50.158;8.642;2022-07-29T02:22:24;2.80;;;1.50;;
16403;SDS011;8311;50.158;8.642;2022-07-29T02:25:22;3.53;;;1.67;;
16403;SDS011;8311;50.158;8.642;2022-07-29T02:28:29;2.70;;;1.40;;
16403;SDS011;8311;50.158;8.642;2022-07-29T02:31:26;2.70;;;1.35;;
16403;SDS011;8311;50.158;8.642;2022-07-29T02:34:24;1.83;;;1.35;;
16403;SDS011;8311;50.158;8.642;2022-07-29T02:37:18;2.63;;;1.55;;
16403;SDS011;8311;50.158;8.642;2022-07-29T02:40:13;2.78;;;1.42;;
16403;SDS011;8311;50.158;8.642;2022-07-29T02:43:10;1.92;;;1.35;;
16403;SDS011;8311;50.158;8.642;2022-07-29T02:46:04;1.65;;;1.20;;
16403;SDS011;8311;50.158;8.642;2022-07-29T02:49:25;1.92;;;1.30;;
16403;SDS011;8311;50.158;8.642;2022-07-29T02:52:28;3.35;;;1.70;;
16403;SDS011;8311;50.158;8.642;2022-07-29T02:55:37;2.90;;;1.58;;
16403;SDS011;8311;50.158;8.642;2022-07-29T02:58:34;3.10;;;1.50;;
16403;SDS011;8311;50.158;8.642;2022-07-29T03:01:33;3.55;;;1.48;;
16403;SDS011;8311;50.158;8.642;2022-07-29T03:04:28;1.95;;;1.30;;
16403;SDS011;8311;50.158;8.642;2022-07-29T03:07:24;3.00;;;1.60;;
16403;SDS011;8311;50.158;8.642;2022-07-29T03:10:18;3.25;;;1.70;;
16403;SDS011;8311;50.158;8.642;2022-07-29T03:13:13;3.65;;;1.60;;
16403;SDS011;8311;50.158;8.642;2022-07-29T03:16:08;1.80;;;1.20;;
16403;SDS011;8311;50.158;8.642;2022-07-29T03:19:02;2.42;;;1.50;;
16403;SDS011;8311;50.158;8.642;2022-07-29T03:21:56;2.17;;;1.30;;
16403;SDS011;8311;50.158;8.642;2022-07-29T03:24:50;2.78;;;1.52;;
16403;SDS011;8311;50.158;8.642;2022-07-29T03:27:43;2.88;;;1.38;;
16403;SDS011;8311;50.158;8.642;2022-07-29T03:30:38;2.28;;;1.45;;
16403;SDS011;8311;50.158;8.642;2022-07-29T03:33:35;3.33;;;1.45;;
16403;SDS011;8311;50.158;8.642;2022-07-29T03:36:28;2.47;;;1.50;;
16403;SDS011;8311;50.158;8.642;2022-07-29T03:39:22;2.30;;;1.52;;
16403;SDS011;8311;50.158;8.642;2022-07-29T03:42:19;1.95;;;1.35;;
16403;SDS011;8311;50.158;8.642;2022-07-29T03:45:15;2.10;;;1.50;;
16403;SDS011;8311;50.158;8.642;2022-07-29T03:48:12;2.42;;;1.38;;
16403;SDS011;8311;50.158;8.642;2022-07-29T03:51:07;3.00;;;1.60;;
16403;SDS011;8311;50.158;8.642;2022-07-29T03:54:01;3.67;;;1.40;;
16403;SDS011;8311;50.158;8.642;2022-07-29T03:57:01;2.70;;;1.45;;
16403;SDS011;8311;50.158;8.642;2022-07-29T03:59:54;3.00;;;1.33;;
16403;SDS011;8311;50.158;8.642;2022-07-29T04:02:48;1.67;;;1.38;;
16403;SDS011;8311;50.158;8.642;2022-07-29T04:05:43;2.08;;;1.42;;
16403;SDS011;8311;50.158;8.642;2022-07-29T04:08:36;3.10;;;1.67;;
16403;SDS011;8311;50.158;8.642;2022-07-29T04:11:29;2.67;;;1.80;;
16403;SDS011;8311;50.158;8.642;2022-07-29T04:14:22;3.35;;;1.73;;
16403;SDS011;8311;50.158;8.642;2022-07-29T04:17:15;2.15;;;1.55;;
16403;SDS011;8311;50.158;8.642;2022-07-29T04:20:08;2.53;;;1.50;;
16403;SDS011;8311;50.158;8.642;2022-07-29T04:23:05;2.17;;;1.40;;
16403;SDS011;8311;50.158;8.642;2022-07-29T04:25:58;2.10;;;1.30;;
16403;SDS011;8311;50.158;8.642;2022-07-29T04:28:53;2.08;;;1.25;;
16403;SDS011;8311;50.158;8.642;2022-07-29T04:31:46;2.35;;;1.40;;
16403;SDS011;8311;50.158;8.642;2022-07-29T04:34:39;2.42;;;1.35;;
16403;SDS011;8311;50.158;8.642;2022-07-29T04:37:32;1.83;;;1.50;;
16403;SDS011;8311;50.158;8.642;2022-07-29T04:40:27;3.45;;;1.35;;
16403;SDS011;8311;50.158;8.642;2022-07-29T04:43:21;2.47;;;1.52;;
16403;SDS011;8311;50.158;8.642;2022-07-29T04:46:15;1.63;;;1.15;;
16403;SDS011;8311;50.158;8.642;2022-07-29T04:49:08;2.75;;;1.50;;
16403;SDS011;8311;50.158;8.642;2022-07-29T04:52:02;2.33;;;1.40;;
16403;SDS011;8311;50.158;8.642;2022-07-29T04:54:56;2.25;;;1.52;;
16403;SDS011;8311;50.158;8.642;2022-07-29T04:57:50;2.90;;;1.60;;
16403;SDS011;8311;50.158;8.642;2022-07-29T05:00:44;2.95;;;1.75;;
16403;SDS011;8311;50.158;8.642;2022-07-29T05:03:37;2.35;;;1.58;;
16403;SDS011;8311;50.158;8.642;2022-07-29T05:06:30;3.90;;;1.75;;
16403;SDS011;8311;50.158;8.642;2022-07-29T05:09:23;2.33;;;1.40;;
16403;SDS011;8311;50.158;8.642;2022-07-29T05:12:16;3.45;;;1.40;;
16403;SDS011;8311;50.158;8.642;2022-07-29T05:15:11;2.20;;;1.40;;
16403;SDS011;8311;50.158;8.642;2022-07-29T05:18:04;2.58;;;1.73;;
16403;SDS011;8311;50.158;8.642;2022-07-29T05:20:57;2.90;;;1.60;;
16403;SDS011;8311;50.158;8.642;2022-07-29T05:23:50;2.88;;;1.42;;
16403;SDS011;8311;50.158;8.642;2022-07-29T05:26:43;2.17;;;1.42;;
16403;SDS011;8311;50.158;8.642;2022-07-29T05:29:36;2.42;;;1.33;;
16403;SDS011;8311;50.158;8.642;2022-07-29T05:32:37;3.53;;;1.40;;
16403;SDS011;8311;50.158;8.642;2022-07-29T05:35:31;1.83;;;1.30;;
16403;SDS011;8311;50.158;8.642;2022-07-29T05:38:26;5.38;;;1.55;;
16403;SDS011;8311;50.158;8.642;2022-07-29T05:41:19;2.40;;;1.35;;
16403;SDS011;8311;50.158;8.642;2022-07-29T05:44:12;2.38;;;1.58;;
16403;SDS011;8311;50.158;8.642;2022-07-29T05:47:06;2.75;;;1.50;;
16403;SDS011;8311;50.158;8.642;2022-07-29T05:50:00;1.92;;;1.38;;
16403;SDS011;8311;50.158;8.642;2022-07-29T05:52:53;2.22;;;1.50;;
16403;SDS011;8311;50.158;8.642;2022-07-29T05:55:46;2.63;;;1.27;;
16403;SDS011;8311;50.158;8.642;2022-07-29T05:58:39;3.20;;;1.48;;
16403;SDS011;8311;50.158;8.642;2022-07-29T06:01:32;3.03;;;1.60;;
16403;SDS011;8311;50.158;8.642;2022-07-29T06:04:25;2.67;;;1.40;;
16403;SDS011;8311;50.158;8.642;2022-07-29T06:07:19;4.07;;;1.77;;
16403;SDS011;8311;50.158;8.642;2022-07-29T06:10:13;5.80;;;1.33;;
16403;SDS011;8311;50.158;8.642;2022-07-29T06:13:06;2.17;;;1.40;;
16403;SDS011;8311;50.158;8.642;2022-07-29T06:15:59;3.33;;;1.65;;
16403;SDS011;8311;50.158;8.642;2022-07-29T06:18:52;3.03;;;1.65;;
16403;SDS011;8311;50.158;8.642;2022-07-29T06:21:45;2.70;;;1.42;;
16403;SDS011;8311;50.158;8.642;2022-07-29T06:24:40;2.47;;;1.42;;
16403;SDS011;8311;50.158;8.642;2022-07-29T06:27:35;4.47;;;1.48;;
16403;SDS011;8311;50.158;8.642;2022-07-29T06:30:29;2.50;;;1.40;;
16403;SDS011;8311;50.158;8.642;2022-07-29T06:33:22;4.55;;;1.52;;
16403;SDS011;8311;50.158;8.642;2022-07-29T06:36:15;2.50;;;1.60;;
16403;SDS011;8311;50.158;8.642;2022-07-29T06:39:08;2.60;;;1.58;;
16403;SDS011;8311;50.158;8.642;2022-07-29T06:42:03;2.95;;;1.40;;
16403;SDS011;8311;50.158;8.642;2022-07-29T06:44:57;3.35;;;1.70;;
16403;SDS011;8311;50.158;8.642;2022-07-29T06:47:51;5.15;;;1.85;;
16403;SDS011;8311;50.158;8.642;2022-07-29T06:50:44;2.78;;;1.67;;
16403;SDS011;8311;50.158;8.642;2022-07-29T06:53:37;4.88;;;1.60;;
16403;SDS011;8311;50.158;8.642;2022-07-29T06:56:51;3.38;;;1.52;;
16403;SDS011;8311;50.158;8.642;2022-07-29T06:59:45;3.72;;;1.83;;
16403;SDS011;8311;50.158;8.642;2022-07-29T07:02:38;3.00;;;1.80;;
16403;SDS011;8311;50.158;8.642;2022-07-29T07:05:32;3.17;;;1.75;;
16403;SDS011;8311;50.158;8.642;2022-07-29T07:08:26;4.88;;;1.90;;
16403;SDS011;8311;50.158;8.642;2022-07-29T07:11:19;4.63;;;2.17;;
16403;SDS011;8311;50.158;8.642;2022-07-29T07:14:12;4.30;;;2.20;;
16403;SDS011;8311;50.158;8.642;2022-07-29T07:17:07;5.70;;;1.92;;
16403;SDS011;8311;50.158;8.642;2022-07-29T07:20:02;3.97;;;2.00;;
16403;SDS011;8311;50.158;8.642;2022-07-29T07:22:56;5.47;;;2.03;;
16403;SDS011;8311;50.158;8.642;2022-07-29T07:25:49;3.42;;;1.70;;
16403;SDS011;8311;50.158;8.642;2022-07-29T07:28:43;4.60;;;1.80;;
16403;SDS011;8311;50.158;8.642;2022-07-29T07:31:36;3.38;;;1.75;;
16403;SDS011;8311;50.158;8.642;2022-07-29T07:34:31;3.17;;;1.67;;
16403;SDS011;8311;50.158;8.642;2022-07-29T07:37:25;4.07;;;1.92;;
16403;SDS011;8311;50.158;8.642;2022-07-29T07:40:19;2.70;;;1.70;;
16403;SDS011;8311;50.158;8.642;2022-07-29T07:43:12;3.20;;;1.92;;
16403;SDS011;8311;50.158;8.642;2022-07-29T07:46:05;3.95;;;2.05;;
16403;SDS011;8311;50.158;8.642;2022-07-29T07:48:59;5.95;;;1.80;;
16403;SDS011;8311;50.158;8.642;2022-07-29T07:51:55;4.05;;;1.75;;
16403;SDS011;8311;50.158;8.642;2022-07-29T07:54:48;3.20;;;1.50;;
16403;SDS011;8311;50.158;8.642;2022-07-29T07:57:48;2.38;;;1.50;;
16403;SDS011;8311;50.158;8.642;2022-07-29T08:00:42;3.15;;;1.83;;
16403;SDS011;8311;50.158;8.642;2022-07-29T08:03:36;6.32;;;1.95;;
16403;SDS011;8311;50.158;8.642;2022-07-29T08:06:30;3.22;;;1.55;;
16403;SDS011;8311;50.158;8.642;2022-07-29T08:09:28;4.47;;;2.08;;
16403;SDS011;8311;50.158;8.642;2022-07-29T08:12:21;3.13;;;1.60;;
16403;SDS011;8311;50.158;8.642;2022-07-29T08:15:14;3.58;;;1.65;;
16403;SDS011;8311;50.158;8.642;2022-07-29T08:18:08;3.20;;;1.80;;
16403;SDS011;8311;50.158;8.642;2022-07-29T08:21:01;3.22;;;1.80;;
16403;SDS011;8311;50.158;8.642;2022-07-29T08:23:54;6.40;;;2.20;;
16403;SDS011;8311;50.158;8.642;2022-07-29T08:27:10;3.10;;;1.65;;
16403;SDS011;8311;50.158;8.642;2022-07-29T08:30:23;3.25;;;1.77;;
16403;SDS011;8311;50.158;8.642;2022-07-29T08:33:17;3.47;;;1.77;;
16403;SDS011;8311;50.158;8.642;2022-07-29T08:36:10;3.13;;;1.77;;
16403;SDS011;8311;50.158;8.642;2022-07-29T08:39:04;3.90;;;1.70;;
16403;SDS011;8311;50.158;8.642;2022-07-29T08:41:57;3.55;;;1.90;;
16403;SDS011;8311;50.158;8.642;2022-07-29T08:44:53;4.13;;;1.77;;
16403;SDS011;8311;50.158;8.642;2022-07-29T08:47:46;3.47;;;1.73;;
16403;SDS011;8311;50.158;8.642;2022-07-29T08:50:40;3.38;;;1.95;;
16403;SDS011;8311;50.158;8.642;2022-07-29T08:53:36;3.03;;;1.70;;
16403;SDS011;8311;50.158;8.642;2022-07-29T08:56:30;2.97;;;1.58;;
16403;SDS011;8311;50.158;8.642;2022-07-29T08:59:25;2.85;;;1.90;;
16403;SDS011;8311;50.158;8.642;2022-07-29T09:02:22;4.32;;;1.75;;
16403;SDS011;8311;50.158;8.642;2022-07-29T09:05:20;2.90;;;1.77;;
16403;SDS011;8311;50.158;8.642;2022-07-29T09:08:14;4.15;;;2.10;;
16403;SDS011;8311;50.158;8.642;2022-07-29T09:11:08;3.72;;;1.67;;
16403;SDS011;8311;50.158;8.642;2022-07-29T09:14:02;3.05;;;1.52;;
16403;SDS011;8311;50.158;8.642;2022-07-29T09:16:55;4.55;;;1.92;;
16403;SDS011;8311;50.158;8.642;2022-07-29T09:19:51;3.13;;;1.90;;
16403;SDS011;8311;50.158;8.642;2022-07-29T09:22:44;3.00;;;2.03;;
16403;SDS011;8311;50.158;8.642;2022-07-29T09:25:40;4.28;;;2.17;;
16403;SDS011;8311;50.158;8.642;2022-07-29T09:28:34;3.22;;;2.03;;
16403;SDS011;8311;50.158;8.642;2022-07-29T09:31:35;3.70;;;1.92;;
16403;SDS011;8311;50.158;8.642;2022-07-29T09:34:30;3.30;;;1.80;;
16403;SDS011;8311;50.158;8.642;2022-07-29T09:37:28;5.00;;;1.52;;
16403;SDS011;8311;50.158;8.642;2022-07-29T09:40:22;3.67;;;1.73;;
16403;SDS011;8311;50.158;8.642;2022-07-29T09:43:17;3.75;;;2.10;;
16403;SDS011;8311;50.158;8.642;2022-07-29T09:46:11;3.17;;;1.90;;
16403;SDS011;8311;50.158;8.642;2022-07-29T09:49:07;3.10;;;1.85;;
16403;SDS011;8311;50.158;8.642;2022-07-29T09:52:03;3.83;;;1.80;;
16403;SDS011;8311;50.158;8.642;2022-07-29T09:55:05;3.35;;;1.85;;
16403;SDS011;8311;50.158;8.642;2022-07-29T09:58:18;3.50;;;1.80;;
16403;SDS011;8311;50.158;8.642;2022-07-29T10:01:12;2.80;;;1.80;;
16403;SDS011;8311;50.158;8.642;2022-07-29T10:04:07;6.25;;;1.98;;
16403;SDS011;8311;50.158;8.642;2022-07-29T10:07:01;4.53;;;1.90;;
16403;SDS011;8311;50.158;8.642;2022-07-29T10:09:57;4.95;;;2.10;;
16403;SDS011;8311;50.158;8.642;2022-07-29T10:12:53;2.85;;;1.52;;
16403;SDS011;8311;50.158;8.642;2022-07-29T10:15:48;4.40;;;1.90;;
16403;SDS011;8311;50.158;8.642;2022-07-29T10:18:43;4.35;;;1.80;;
16403;SDS011;8311;50.158;8.642;2022-07-29T10:21:39;3.55;;;1.90;;
16403;SDS011;8311;50.158;8.642;2022-07-29T10:24:35;2.08;;;1.55;;
16403;SDS011;8311;50.158;8.642;2022-07-29T10:27:29;2.35;;;1.80;;
16403;SDS011;8311;50.158;8.642;2022-07-29T10:30:25;3.35;;;1.80;;
16403;SDS011;8311;50.158;8.642;2022-07-29T10:33:27;3.92;;;1.88;;
16403;SDS011;8311;50.158;8.642;2022-07-29T10:36:38;3.67;;;1.65;;
16403;SDS011;8311;50.158;8.642;2022-07-29T10:39:42;2.67;;;1.48;;
16403;SDS011;8311;50.158;8.642;2022-07-29T10:42:47;3.47;;;2.15;;
16403;SDS011;8311;50.158;8.642;2022-07-29T10:45:44;4.63;;;1.95;;
16403;SDS011;8311;50.158;8.642;2022-07-29T10:52:05;4.38;;;1.92;;
16403;SDS011;8311;50.158;8.642;2022-07-29T10:55:00;4.90;;;2.30;;
16403;SDS011;8311;50.158;8.642;2022-07-29T10:58:11;3.15;;;2.00;;
16403;SDS011;8311;50.158;8.642;2022-07-29T11:01:27;3.90;;;1.90;;
16403;SDS011;8311;50.158;8.642;2022-07-29T11:05:00;3.35;;;1.98;;
16403;SDS011;8311;50.158;8.642;2022-07-29T11:14:55;2.88;;;1.92;;
16403;SDS011;8311;50.158;8.642;2022-07-29T11:18:06;3.60;;;1.90;;
16403;SDS011;8311;50.158;8.642;2022-07-29T11:21:09;2.65;;;1.73;;
16403;SDS011;8311;50.158;8.642;2022-07-29T11:24:51;2.78;;;1.92;;
16403;SDS011;8311;50.158;8.642;2022-07-29T11:28:08;3.50;;;2.10;;
16403;SDS011;8311;50.158;8.642;2022-07-29T11:31:16;5.45;;;2.45;;
16403;SDS011;8311;50.158;8.642;2022-07-29T11:34:20;3.88;;;1.90;;
16403;SDS011;8311;50.158;8.642;2022-07-29T11:37:19;6.47;;;2.20;;
16403;SDS011;8311;50.158;8.642;2022-07-29T11:40:18;2.97;;;1.85;;
16403;SDS011;8311;50.158;8.642;2022-07-29T11:43:13;3.55;;;1.88;;
16403;SDS011;8311;50.158;8.642;2022-07-29T11:46:45;3.63;;;2.35;;
16403;SDS011;8311;50.158;8.642;2022-07-29T11:49:41;3.22;;;2.00;;
16403;SDS011;8311;50.158;8.642;2022-07-29T11:52:39;3.63;;;2.10;;
16403;SDS011;8311;50.158;8.642;2022-07-29T11:55:40;3.28;;;2.00;;
16403;SDS011;8311;50.158;8.642;2022-07-29T11:58:42;4.30;;;2.38;;
16403;SDS011;8311;50.158;8.642;2022-07-29T12:01:51;4.35;;;2.10;;
16403;SDS011;8311;50.158;8.642;2022-07-29T12:05:06;2.83;;;2.05;;
16403;SDS011;8311;50.158;8.642;2022-07-29T12:08:05;3.45;;;2.08;;
16403;SDS011;8311;50.158;8.642;2022-07-29T12:11:14;2.50;;;1.88;;
16403;SDS011;8311;50.158;8.642;2022-07-29T12:14:24;2.83;;;2.05;;
16403;SDS011;8311;50.158;8.642;2022-07-29T12:17:27;4.00;;;2.13;;
16403;SDS011;8311;50.158;8.642;2022-07-29T12:20:29;4.10;;;1.80;;
16403;SDS011;8311;50.158;8.642;2022-07-29T12:23:25;2.80;;;1.85;;
16403;SDS011;8311;50.158;8.642;2022-07-29T12:26:26;4.25;;;2.30;;
16403;SDS011;8311;50.158;8.642;2022-07-29T12:29:19;5.30;;;2.15;;
16403;SDS011;8311;50.158;8.642;2022-07-29T12:32:30;3.95;;;2.22;;
16403;SDS011;8311;50.158;8.642;2022-07-29T12:35:24;3.10;;;2.03;;
16403;SDS011;8311;50.158;8.642;2022-07-29T12:38:19;3.92;;;2.20;;
16403;SDS011;8311;50.158;8.642;2022-07-29T12:41:12;3.65;;;2.08;;
16403;SDS011;8311;50.158;8.642;2022-07-29T12:44:06;3.60;;;2.35;;
16403;SDS011;8311;50.158;8.642;2022-07-29T12:47:02;4.03;;;2.42;;
16403;SDS011;8311;50.158;8.642;2022-07-29T12:50:07;4.65;;;2.35;;
16403;SDS011;8311;50.158;8.642;2022-07-29T12:53:08;3.83;;;2.10;;
16403;SDS011;8311;50.158;8.642;2022-07-29T12:56:05;3.33;;;1.98;;
16403;SDS011;8311;50.158;8.642;2022-07-29T12:59:19;4.03;;;2.28;;
16403;SDS011;8311;50.158;8.642;2022-07-29T13:02:20;2.97;;;2.20;;
16403;SDS011;8311;50.158;8.642;2022-07-29T13:05:14;6.15;;;2.63;;
16403;SDS011;8311;50.158;8.642;2022-07-29T13:08:12;3.42;;;1.83;;
16403;SDS011;8311;50.158;8.642;2022-07-29T13:14:31;4.50;;;2.33;;
16403;SDS011;8311;50.158;8.642;2022-07-29T13:17:25;2.72;;;1.83;;
16403;SDS011;8311;50.158;8.642;2022-07-29T13:20:24;4.18;;;2.50;;
16403;SDS011;8311;50.158;8.642;2022-07-29T13:23:20;4.47;;;2.67;;
16403;SDS011;8311;50.158;8.642;2022-07-29T13:26:14;4.40;;;2.50;;
16403;SDS011;8311;50.158;8.642;2022-07-29T13:29:12;4.20;;;2.28;;
16403;SDS011;8311;50.158;8.642;2022-07-29T13:32:05;3.75;;;2.60;;
16403;SDS011;8311;50.158;8.642;2022-07-29T13:35:00;4.15;;;2.30;;
16403;SDS011;8311;50.158;8.642;2022-07-29T13:37:56;3.05;;;2.20;;
16403;SDS011;8311;50.158;8.642;2022-07-29T13:40:49;5.20;;;2.47;;
16403;SDS011;8311;50.158;8.642;2022-07-29T13:43:43;4.43;;;2.83;;
16403;SDS011;8311;50.158;8.642;2022-07-29T13:46:42;2.97;;;2.30;;
16403;SDS011;8311;50.158;8.642;2022-07-29T13:49:35;5.45;;;2.78;;
16403;SDS011;8311;50.158;8.642;2022-07-29T13:52:29;3.70;;;2.20;;
16403;SDS011;8311;50.158;8.642;2022-07-29T13:55:22;4.05;;;2.13;;
16403;SDS011;8311;50.158;8.642;2022-07-29T13:58:15;5.85;;;2.67;;
16403;SDS011;8311;50.158;8.642;2022-07-29T14:01:10;4.13;;;2.30;;
16403;SDS011;8311;50.158;8.642;2022-07-29T14:04:05;3.20;;;2.50;;
16403;SDS011;8311;50.158;8.642;2022-07-29T14:06:58;3.88;;;2.45;;
16403;SDS011;8311;50.158;8.642;2022-07-29T14:09:53;4.85;;;2.28;;
16403;SDS011;8311;50.158;8.642;2022-07-29T14:12:47;3.13;;;2.22;;
16403;SDS011;8311;50.158;8.642;2022-07-29T14:15:40;4.45;;;2.40;;
16403;SDS011;8311;50.158;8.642;2022-07-29T14:18:33;2.97;;;2.28;;
16403;SDS011;8311;50.158;8.642;2022-07-29T14:21:28;5.43;;;2.80;;
16403;SDS011;8311;50.158;8.642;2022-07-29T14:24:24;4.22;;;2.67;;
16403;SDS011;8311;50.158;8.642;2022-07-29T14:27:17;3.90;;;2.38;;
16403;SDS011;8311;50.158;8.642;2022-07-29T14:30:29;3.97;;;2.85;;
16403;SDS011;8311;50.158;8.642;2022-07-29T14:33:22;3.40;;;2.40;;
16403;SDS011;8311;50.158;8.642;2022-07-29T14:36:14;2.67;;;2.20;;
16403;SDS011;8311;50.158;8.642;2022-07-29T14:39:09;4.60;;;2.45;;
16403;SDS011;8311;50.158;8.642;2022-07-29T14:42:02;4.30;;;2.03;;
16403;SDS011;8311;50.158;8.642;2022-07-29T14:44:56;3.28;;;2.05;;
16403;SDS011;8311;50.158;8.642;2022-07-29T14:47:48;3.50;;;2.17;;
16403;SDS011;8311;50.158;8.642;2022-07-29T14:50:47;4.05;;;2.60;;
16403;SDS011;8311;50.158;8.642;2022-07-29T14:53:40;3.17;;;2.17;;
16403;SDS011;8311;50.158;8.642;2022-07-29T14:56:36;3.47;;;2.30;;
16403;SDS011;8311;50.158;8.642;2022-07-29T14:59:37;3.97;;;2.03;;
16403;SDS011;8311;50.158;8.642;2022-07-29T15:02:31;3.53;;;2.20;;
16403;SDS011;8311;50.158;8.642;2022-07-29T15:05:44;3.63;;;2.10;;
16403;SDS011;8311;50.158;8.642;2022-07-29T15:08:39;3.65;;;2.38;;
16403;SDS011;8311;50.158;8.642;2022-07-29T15:11:31;3.05;;;2.30;;
16403;SDS011;8311;50.158;8.642;2022-07-29T15:14:30;3.28;;;2.00;;
16403;SDS011;8311;50.158;8.642;2022-07-29T15:17:24;3.95;;;2.70;;
16403;SDS011;8311;50.158;8.642;2022-07-29T15:20:18;2.38;;;1.90;;
16403;SDS011;8311;50.158;8.642;2022-07-29T15:23:13;4.90;;;2.60;;
16403;SDS011;8311;50.158;8.642;2022-07-29T15:26:05;3.13;;;1.98;;
16403;SDS011;8311;50.158;8.642;2022-07-29T15:28:59;3.42;;;2.22;;
16403;SDS011;8311;50.158;8.642;2022-07-29T15:31:55;2.83;;;2.17;;
16403;SDS011;8311;50.158;8.642;2022-07-29T15:34:48;3.45;;;2.17;;
16403;SDS011;8311;50.158;8.642;2022-07-29T15:37:42;3.55;;;2.35;;
16403;SDS011;8311;50.158;8.642;2022-07-29T15:40:39;3.17;;;2.00;;
16403;SDS011;8311;50.158;8.642;2022-07-29T15:43:34;3.90;;;2.75;;
16403;SDS011;8311;50.158;8.642;2022-07-29T15:46:29;4.40;;;2.42;;
16403;SDS011;8311;50.158;8.642;2022-07-29T15:49:41;3.72;;;2.20;;
16403;SDS011;8311;50.158;8.642;2022-07-29T15:52:40;2.55;;;1.90;;
16403;SDS011;8311;50.158;8.642;2022-07-29T15:55:33;3.28;;;2.10;;
16403;SDS011;8311;50.158;8.642;2022-07-29T15:58:26;2.60;;;1.95;;
16403;SDS011;8311;50.158;8.642;2022-07-29T16:01:20;2.85;;;1.95;;
16403;SDS011;8311;50.158;8.642;2022-07-29T16:04:13;2.83;;;1.70;;
16403;SDS011;8311;50.158;8.642;2022-07-29T16:07:07;3.47;;;2.30;;
16403;SDS011;8311;50.158;8.642;2022-07-29T16:10:00;3.20;;;2.42;;
16403;SDS011;8311;50.158;8.642;2022-07-29T16:12:54;3.03;;;2.10;;
16403;SDS011;8311;50.158;8.642;2022-07-29T16:15:47;2.45;;;1.77;;
16403;SDS011;8311;50.158;8.642;2022-07-29T16:18:54;3.35;;;2.10;;
16403;SDS011;8311;50.158;8.642;2022-07-29T16:21:47;2.28;;;1.90;;
16403;SDS011;8311;50.158;8.642;2022-07-29T16:24:42;2.95;;;1.90;;
16403;SDS011;8311;50.158;8.642;2022-07-29T16:27:36;3.33;;;1.85;;
16403;SDS011;8311;50.158;8.642;2022-07-29T16:30:30;2.80;;;1.95;;
16403;SDS011;8311;50.158;8.642;2022-07-29T16:33:23;2.92;;;2.03;;
16403;SDS011;8311;50.158;8.642;2022-07-29T16:36:17;3.38;;;1.90;;
16403;SDS011;8311;50.158;8.642;2022-07-29T16:39:11;2.85;;;1.90;;
16403;SDS011;8311;50.158;8.642;2022-07-29T16:42:05;4.25;;;2.10;;
16403;SDS011;8311;50.158;8.642;2022-07-29T16:45:00;2.10;;;1.35;;
16403;SDS011;8311;50.158;8.642;2022-07-29T16:47:55;2.47;;;1.90;;
16403;SDS011;8311;50.158;8.642;2022-07-29T16:50:52;2.50;;;1.83;;
16403;SDS011;8311;50.158;8.642;2022-07-29T16:53:46;2.25;;;1.70;;
16403;SDS011;8311;50.158;8.642;2022-07-29T16:56:41;2.95;;;1.75;;
16403;SDS011;8311;50.158;8.642;2022-07-29T16:59:36;2.20;;;1.63;;
16403;SDS011;8311;50.158;8.642;2022-07-29T17:02:34;2.85;;;1.90;;
16403;SDS011;8311;50.158;8.642;2022-07-29T17:05:28;3.25;;;1.90;;
16403;SDS011;8311;50.158;8.642;2022-07-29T17:08:42;3.95;;;1.98;;
16403;SDS011;8311;50.158;8.642;2022-07-29T17:11:35;3.03;;;1.77;;
16403;SDS011;8311;50.158;8.642;2022-07-29T17:14:46;2.38;;;1.58;;
16403;SDS011;8311;50.158;8.642;2022-07-29T17:17:39;2.70;;;1.65;;
16403;SDS011;8311;50.158;8.642;2022-07-29T17:20:47;3.00;;;2.15;;
16403;SDS011;8311;50.158;8.642;2022-07-29T17:23:41;2.13;;;1.63;;
16403;SDS011;8311;50.158;8.642;2022-07-29T17:26:35;3.15;;;2.15;;
16403;SDS011;8311;50.158;8.642;2022-07-29T17:29:30;2.67;;;1.88;;
16403;SDS011;8311;50.158;8.642;2022-07-29T17:32:24;3.17;;;2.05;;
16403;SDS011;8311;50.158;8.642;2022-07-29T17:35:18;2.88;;;1.65;;
16403;SDS011;8311;50.158;8.642;2022-07-29T17:38:29;2.42;;;1.73;;
16403;SDS011;8311;50.158;8.642;2022-07-29T17:41:22;2.22;;;1.70;;
16403;SDS011;8311;50.158;8.642;2022-07-29T17:44:17;2.25;;;1.70;;
16403;SDS011;8311;50.158;8.642;2022-07-29T17:47:10;2.22;;;1.80;;
16403;SDS011;8311;50.158;8.642;2022-07-29T17:50:08;2.17;;;1.70;;
16403;SDS011;8311;50.158;8.642;2022-07-29T17:53:02;2.72;;;1.80;;
16403;SDS011;8311;50.158;8.642;2022-07-29T17:56:06;2.42;;;1.73;;
16403;SDS011;8311;50.158;8.642;2022-07-29T17:58:59;2.80;;;1.95;;
16403;SDS011;8311;50.158;8.642;2022-07-29T18:01:57;2.95;;;2.08;;
16403;SDS011;8311;50.158;8.642;2022-07-29T18:04:50;3.33;;;1.88;;
16403;SDS011;8311;50.158;8.642;2022-07-29T18:07:44;3.42;;;2.03;;
16403;SDS011;8311;50.158;8.642;2022-07-29T18:10:38;2.33;;;1.63;;
16403;SDS011;8311;50.158;8.642;2022-07-29T18:13:31;2.50;;;1.65;;
16403;SDS011;8311;50.158;8.642;2022-07-29T18:16:24;3.08;;;1.88;;